Time;durP1;ratioP1;P1;durP2;ratioP2;P2;SDS_P1;SDS_P2;PMS_P1;PMS_P2;Temp;Humidity;BMP_temperature;BMP_pressure;BME280_temperature;BME280_humidity;BME280_pressure;Samples;Min_cycle;Max_cycle;Signal;HPM_P1;HPM_P2
2023/06/18 00:02:24;;;;;;;16.25;15.25;;;;;;;13.45;100.00;99761.78;10546435;28;20051;-71
2023/06/18 00:07:25;;;;;;;15.88;14.88;;;;;;;13.45;100.00;99770.56;10546357;28;20044;-72
2023/06/18 00:12:27;;;;;;;15.13;14.13;;;;;;;13.47;100.00;99775.78;10528199;28;20044;-72
2023/06/18 00:17:29;;;;;;;12.77;11.88;;;;;;;13.52;100.00;99771.13;10546320;28;20047;-71
2023/06/18 00:22:31;;;;;;;13.50;12.70;;;;;;;13.43;100.00;99769.78;10529099;28;20489;-73
2023/06/18 00:27:33;;;;;;;13.90;12.90;;;;;;;13.50;100.00;99778.25;10544838;28;20044;-70
2023/06/18 00:32:35;;;;;;;13.77;12.77;;;;;;;13.71;100.00;99763.16;10547366;28;20093;-71
2023/06/18 00:37:39;;;;;;;13.73;12.75;;;;;;;13.70;100.00;99770.25;10528149;28;20044;-71
2023/06/18 00:42:41;;;;;;;13.95;13.05;;;;;;;13.44;100.00;99773.28;10545987;28;20040;-71
2023/06/18 00:47:44;;;;;;;13.48;12.57;;;;;;;13.27;100.00;99769.66;10544047;28;20048;-71
2023/06/18 00:52:49;;;;;;;11.98;11.18;;;;;;;13.23;100.00;99764.59;10527276;28;20064;-72
2023/06/18 00:57:59;;;;;;;13.63;12.48;;;;;;;13.09;100.00;99768.69;10544891;28;20059;-71
2023/06/18 01:03:04;;;;;;;14.32;13.30;;;;;;;12.96;100.00;99774.59;10546236;28;20040;-72
2023/06/18 01:08:08;;;;;;;15.07;13.95;;;;;;;12.90;100.00;99775.75;10527414;28;20048;-71
2023/06/18 01:13:13;;;;;;;14.70;13.80;;;;;;;12.89;100.00;99766.13;10545940;28;20089;-71
2023/06/18 01:18:15;;;;;;;14.25;13.45;;;;;;;13.01;100.00;99769.97;10544240;28;20109;-72
2023/06/18 01:23:27;;;;;;;14.45;13.20;;;;;;;13.36;100.00;99766.56;10543860;28;20111;-72
2023/06/18 01:28:31;;;;;;;13.43;12.60;;;;;;;13.11;100.00;99763.38;10544383;28;20040;-71
2023/06/18 01:33:34;;;;;;;14.25;13.30;;;;;;;13.04;100.00;99769.84;10545244;28;20117;-72
2023/06/18 01:38:43;;;;;;;13.15;12.35;;;;;;;12.77;100.00;99770.16;10544604;28;20040;-71
2023/06/18 01:43:52;;;;;;;12.88;11.98;;;;;;;12.62;100.00;99763.81;10544145;28;20119;-72
2023/06/18 01:48:56;;;;;;;14.38;13.38;;;;;;;12.92;100.00;99765.13;10526562;28;20048;-71
2023/06/18 01:54:01;;;;;;;13.60;12.77;;;;;;;12.66;100.00;99766.28;10543387;28;20519;-71
2023/06/18 01:59:03;;;;;;;14.55;13.40;;;;;;;12.56;100.00;99776.38;10542970;28;20052;-72
2023/06/18 02:04:05;;;;;;;14.50;13.55;;;;;;;12.36;100.00;99777.28;10541180;28;20130;-72
2023/06/18 02:09:07;;;;;;;11.95;11.15;;;;;;;12.29;100.00;99783.72;10541819;28;20182;-71
2023/06/18 02:14:10;;;;;;;11.90;11.00;;;;;;;12.33;100.00;99774.75;10523589;28;20047;-71
2023/06/18 02:19:12;;;;;;;11.27;10.57;;;;;;;12.37;100.00;99776.34;10523536;28;20055;-71
2023/06/18 02:24:15;;;;;;;11.50;10.77;;;;;;;12.71;100.00;99782.78;10541982;28;20064;-72
2023/06/18 02:29:17;;;;;;;11.38;10.50;;;;;;;12.51;100.00;99787.13;10540458;28;20047;-72
2023/06/18 02:34:19;;;;;;;11.68;10.93;;;;;;;12.45;100.00;99782.16;10541357;28;20036;-71
2023/06/18 02:39:21;;;;;;;12.38;11.18;;;;;;;12.37;100.00;99786.88;10541425;28;20051;-71
2023/06/18 02:44:24;;;;;;;10.52;9.73;;;;;;;12.40;100.00;99781.50;10526999;28;20036;-72
2023/06/18 02:49:27;;;;;;;12.63;11.40;;;;;;;12.00;100.00;99785.81;10549461;28;20043;-70
2023/06/18 02:54:30;;;;;;;11.15;10.48;;;;;;;11.83;100.00;99793.56;10531229;28;20040;-70
2023/06/18 02:59:32;;;;;;;11.57;10.77;;;;;;;11.83;100.00;99796.19;10548165;28;20067;-71
2023/06/18 03:04:34;;;;;;;10.25;9.55;;;;;;;11.80;100.00;99797.13;10531296;28;20044;-71
2023/06/18 03:09:36;;;;;;;10.50;9.63;;;;;;;12.15;100.00;99800.13;10530754;28;20078;-70
2023/06/18 03:14:39;;;;;;;10.82;10.02;;;;;;;12.33;100.00;99798.47;10529563;28;20049;-70
2023/06/18 03:19:40;;;;;;;11.88;10.10;;;;;;;12.26;100.00;99797.00;10548783;28;20048;-72
2023/06/18 03:24:42;;;;;;;11.55;10.65;;;;;;;12.18;100.00;99799.16;10547878;28;20036;-72
2023/06/18 03:29:44;;;;;;;11.32;10.52;;;;;;;11.98;100.00;99803.44;10546682;28;20127;-72
2023/06/18 03:34:48;;;;;;;11.23;10.43;;;;;;;11.94;100.00;99808.91;10531373;28;20040;-71
2023/06/18 03:39:53;;;;;;;12.63;11.53;;;;;;;11.93;100.00;99815.09;10547402;28;20561;-72
2023/06/18 03:44:56;;;;;;;11.43;10.63;;;;;;;12.09;100.00;99821.47;10528482;28;20068;-72
2023/06/18 03:49:58;;;;;;;11.30;10.27;;;;;;;12.37;100.00;99824.66;10529063;28;20501;-70
2023/06/18 03:55:01;;;;;;;10.45;9.75;;;;;;;12.78;100.00;99829.91;10545022;28;20135;-72
2023/06/18 04:00:04;;;;;;;11.52;10.32;;;;;;;12.91;100.00;99830.22;10528145;28;20139;-72
2023/06/18 04:05:13;;;;;;;11.23;10.40;;;;;;;12.71;100.00;99832.91;10546616;28;20071;-72
2023/06/18 04:10:14;;;;;;;11.05;10.20;;;;;;;12.61;100.00;99829.78;10527768;28;20050;-70
2023/06/18 04:15:16;;;;;;;11.30;10.43;;;;;;;12.58;100.00;99828.16;10544438;28;20074;-71
2023/06/18 04:20:19;;;;;;;9.82;9.13;;;;;;;12.77;100.00;99822.06;10528048;28;20154;-72
2023/06/18 04:25:23;;;;;;;9.40;8.65;;;;;;;13.02;100.00;99827.97;10547492;28;20035;-72
2023/06/18 04:30:28;;;;;;;10.10;9.30;;;;;;;13.24;100.00;99832.31;10528177;28;20044;-72
2023/06/18 04:35:32;;;;;;;9.35;8.75;;;;;;;13.19;100.00;99819.25;10527096;28;20043;-72
2023/06/18 04:40:34;;;;;;;8.10;7.55;;;;;;;13.42;100.00;99818.25;10545478;28;20045;-72
2023/06/18 04:45:36;;;;;;;8.80;8.23;;;;;;;13.35;100.00;99815.03;10526621;28;20063;-72
2023/06/18 04:50:39;;;;;;;9.13;8.55;;;;;;;13.57;100.00;99816.66;10526462;28;20130;-72
2023/06/18 05:01:03;;;;;;;7.93;7.20;;;;;;;13.69;100.00;99834.56;10440362;28;20437;-70
2023/06/18 05:06:06;;;;;;;8.45;7.50;;;;;;;14.02;100.00;99837.34;10472043;28;20051;-70
2023/06/18 05:11:09;;;;;;;7.72;7.07;;;;;;;14.56;100.00;99847.91;10465665;28;20048;-70
2023/06/18 05:16:14;;;;;;;7.72;7.13;;;;;;;14.59;100.00;99850.41;10498048;28;20509;-69
2023/06/18 05:21:16;;;;;;;7.28;6.85;;;;;;;15.01;99.30;99857.06;10497917;28;20399;-69
2023/06/18 05:26:20;;;;;;;7.15;6.63;;;;;;;15.44;94.66;99858.25;10498281;28;20142;-69
2023/06/18 05:31:22;;;;;;;6.38;5.78;;;;;;;15.93;88.60;99849.41;10480631;28;20080;-69
2023/06/18 05:36:27;;;;;;;6.13;5.63;;;;;;;15.88;92.09;99850.50;10481071;28;20102;-69
2023/06/18 05:41:29;;;;;;;7.00;6.50;;;;;;;16.49;87.45;99850.56;10497049;28;20048;-69
2023/06/18 05:46:31;;;;;;;7.10;6.50;;;;;;;16.53;87.91;99852.97;10497921;28;20040;-69
2023/06/18 05:51:33;;;;;;;7.35;6.78;;;;;;;16.72;85.65;99859.81;10496979;28;20467;-69
2023/06/18 05:56:37;;;;;;;6.15;5.57;;;;;;;17.06;85.44;99859.53;10496254;28;20128;-69
2023/06/18 06:01:39;;;;;;;6.22;5.72;;;;;;;17.55;83.52;99876.88;10497882;28;20068;-69
2023/06/18 06:06:42;;;;;;;7.22;6.57;;;;;;;18.00;79.93;99870.44;10479436;28;20051;-69
2023/06/18 06:11:45;;;;;;;7.00;6.50;;;;;;;18.06;80.55;99870.06;10496438;28;20094;-69
2023/06/18 06:16:48;;;;;;;6.72;6.22;;;;;;;18.62;78.55;99870.72;10498165;28;20513;-69
2023/06/18 06:21:50;;;;;;;6.15;5.85;;;;;;;19.18;74.51;99857.19;10504652;28;20044;-69
2023/06/18 06:26:52;;;;;;;5.80;5.50;;;;;;;19.67;74.81;99861.72;10487340;28;20059;-69
2023/06/18 06:31:54;;;;;;;4.78;4.47;;;;;;;20.09;72.03;99860.38;10505112;28;20494;-69
2023/06/18 06:36:56;;;;;;;5.07;4.68;;;;;;;20.39;68.27;99867.91;10487308;28;20131;-70
2023/06/18 06:41:59;;;;;;;5.82;5.43;;;;;;;20.31;68.20;99866.78;10504060;28;20048;-69
2023/06/18 06:47:04;;;;;;;8.18;5.53;;;;;;;20.44;67.92;99869.38;10486863;28;20051;-70
2023/06/18 06:52:41;;;;;;;4.75;4.45;;;;;;;20.76;66.64;99866.97;10478337;28;20413;-69
2023/06/18 06:57:42;;;;;;;4.38;4.05;;;;;;;21.26;63.88;99876.41;10504205;28;20047;-70
2023/06/18 07:02:45;;;;;;;5.25;4.88;;;;;;;21.66;63.16;99878.63;10486120;28;20048;-69
2023/06/18 07:07:47;;;;;;;5.53;5.13;;;;;;;21.92;62.52;99876.53;10504037;28;20044;-69
2023/06/18 07:12:48;;;;;;;4.82;4.53;;;;;;;21.55;62.08;99870.59;10503832;28;20110;-69
2023/06/18 07:17:50;;;;;;;5.82;5.32;;;;;;;21.84;60.38;99869.13;10502431;28;20052;-70
2023/06/18 07:22:52;;;;;;;5.65;5.25;;;;;;;21.99;59.76;99875.03;10503152;28;20375;-69
2023/06/18 07:27:54;;;;;;;5.28;4.88;;;;;;;22.30;57.32;99872.53;10503457;28;20036;-71
2023/06/18 07:32:55;;;;;;;5.10;4.80;;;;;;;22.37;56.82;99873.75;10502801;28;20040;-71
2023/06/18 07:37:57;;;;;;;4.75;4.38;;;;;;;22.94;53.53;99868.97;10502704;28;20127;-69
2023/06/18 07:43:00;;;;;;;4.65;4.32;;;;;;;23.41;52.35;99865.66;10502854;28;20043;-72
2023/06/18 07:48:02;;;;;;;4.25;3.85;;;;;;;23.83;51.10;99870.09;10502670;28;20040;-74
2023/06/18 07:53:04;;;;;;;4.82;4.53;;;;;;;24.18;47.05;99869.59;10484566;28;20045;-72
2023/06/18 07:58:06;;;;;;;4.90;4.50;;;;;;;24.25;49.88;99865.34;10501902;28;20115;-72
2023/06/18 08:03:07;;;;;;;4.15;3.80;;;;;;;24.47;47.83;99863.41;10502049;28;20068;-70
2023/06/18 08:08:10;;;;;;;5.22;3.75;;;;;;;24.73;48.21;99861.81;10502189;28;20048;-71
2023/06/18 08:13:12;;;;;;;4.65;4.35;;;;;;;24.14;48.56;99866.34;10501250;28;20040;-71
2023/06/18 08:18:13;;;;;;;4.75;4.13;;;;;;;24.02;47.97;99867.44;10500947;28;20075;-71
2023/06/18 08:23:15;;;;;;;4.95;4.65;;;;;;;24.04;49.07;99860.13;10501816;28;20046;-71
2023/06/18 08:28:17;;;;;;;3.80;3.50;;;;;;;24.89;49.26;99850.50;10500555;28;20450;-71
2023/06/18 08:33:19;;;;;;;4.78;4.47;;;;;;;25.12;48.14;99853.72;10500196;28;20047;-71
2023/06/18 08:38:21;;;;;;;4.45;4.05;;;;;;;25.58;46.29;99860.88;10499078;28;20448;-72
2023/06/18 08:43:26;;;;;;;5.32;4.85;;;;;;;25.47;46.14;99850.31;10499230;28;20040;-73
2023/06/18 08:48:29;;;;;;;;;;;;;;;25.97;43.72;99849.91;10482263;28;20127;-72
2023/06/18 08:53:41;;;;;;;4.78;4.47;;;;;;;26.30;46.66;99844.88;10499569;28;20007;-72
2023/06/18 08:58:51;;;;;;;4.70;4.40;;;;;;;26.19;44.26;99850.47;10499344;28;20049;-72
2023/06/18 09:03:55;;;;;;;5.10;4.80;;;;;;;26.34;43.85;99857.00;10499214;28;20528;-72
2023/06/18 09:08:58;;;;;;;5.07;4.78;;;;;;;26.12;45.10;99848.41;10498541;28;20036;-72
2023/06/18 09:13:59;;;;;;;5.55;5.10;;;;;;;26.51;44.62;99849.97;10480869;28;20273;-72
2023/06/18 09:19:01;;;;;;;4.68;4.38;;;;;;;26.74;45.45;99848.47;10498748;28;20090;-72
2023/06/18 09:24:08;;;;;;;5.60;5.20;;;;;;;26.24;44.22;99846.31;10498597;28;20456;-72
2023/06/18 09:29:11;;;;;;;5.43;4.93;;;;;;;26.91;41.31;99838.63;10499536;28;20399;-72
2023/06/18 09:34:15;;;;;;;4.60;4.20;;;;;;;27.57;42.03;99840.69;10498887;28;20083;-72
2023/06/18 09:39:23;;;;;;;4.70;4.10;;;;;;;27.48;42.12;99838.13;10496937;28;20051;-72
2023/06/18 09:44:24;;;;;;;5.93;5.38;;;;;;;27.36;42.45;99830.34;10498385;28;20079;-71
2023/06/18 09:49:27;;;;;;;5.13;4.68;;;;;;;27.52;41.87;99826.00;10497847;28;20545;-73
2023/06/18 09:54:41;;;;;;;5.38;4.63;;;;;;;27.61;42.62;99825.03;10496192;28;20136;-73
2023/06/18 09:59:43;;;;;;;5.78;5.38;;;;;;;27.28;44.27;99815.97;10496710;28;20521;-72
2023/06/18 10:04:45;;;;;;;5.25;4.93;;;;;;;27.65;41.82;99818.28;10497266;28;20040;-73
2023/06/18 10:09:48;;;;;;;5.07;4.75;;;;;;;27.55;42.42;99814.88;10480019;28;20055;-73
2023/06/18 10:14:53;;;;;;;5.03;4.63;;;;;;;27.49;42.18;99812.81;10497559;28;20516;-72
2023/06/18 10:19:55;;;;;;;;;;;;;;;27.69;41.77;99808.84;10496433;28;20127;-73
2023/06/18 10:25:05;;;;;;;5.03;4.70;;;;;;;27.54;41.57;99824.00;10495718;28;19920;-73
2023/06/18 10:30:08;;;;;;;4.93;4.47;;;;;;;27.39;42.96;99821.91;10496688;28;20047;-72
2023/06/18 10:35:13;;;;;;;4.93;4.63;;;;;;;27.31;40.67;99813.75;10498068;28;20075;-73
2023/06/18 10:40:15;;;;;;;5.28;4.80;;;;;;;27.19;42.45;99814.22;10497930;28;20144;-73
2023/06/18 10:45:17;;;;;;;4.53;4.22;;;;;;;28.16;41.33;99811.84;10497292;28;20127;-73
2023/06/18 10:50:19;;;;;;;6.43;4.95;;;;;;;27.58;40.13;99810.00;10496728;28;20045;-72
2023/06/18 10:55:25;;;;;;;4.93;4.50;;;;;;;27.61;40.26;99811.53;10496905;28;20036;-72
2023/06/18 11:00:41;;;;;;;5.03;4.60;;;;;;;27.65;38.29;99807.50;10545417;22;20060;-71
2023/06/18 11:05:47;;;;;;;5.47;5.07;;;;;;;27.88;41.13;99810.44;10545284;28;20374;-71
2023/06/18 11:10:49;;;;;;;4.38;4.07;;;;;;;28.04;40.60;99804.25;10548070;28;20040;-71
2023/06/18 11:15:54;;;;;;;5.15;4.65;;;;;;;27.71;39.40;99787.91;10547755;28;20046;-70
2023/06/18 11:20:56;;;;;;;5.57;5.07;;;;;;;28.04;38.37;99791.56;10528863;28;20077;-71
2023/06/18 11:25:59;;;;;;;4.97;4.47;;;;;;;28.32;38.57;99785.84;10546581;28;20326;-71
2023/06/18 11:31:03;;;;;;;4.78;4.38;;;;;;;29.05;36.21;99790.38;10546622;28;20043;-70
2023/06/18 11:36:15;;;;;;;4.53;4.10;;;;;;;28.52;37.08;99776.41;10527885;28;20046;-71
2023/06/18 11:41:24;;;;;;;4.60;4.30;;;;;;;28.51;35.29;99777.44;10545938;28;20051;-72
2023/06/18 11:46:37;;;;;;;3.92;3.63;;;;;;;29.03;36.52;99770.75;10546435;28;20428;-71
2023/06/18 11:51:39;;;;;;;4.53;4.22;;;;;;;28.84;38.00;99767.38;10545316;28;20052;-71
2023/06/18 11:56:45;;;;;;;4.20;3.90;;;;;;;29.19;35.70;99772.56;10545715;28;20085;-71
2023/06/18 12:01:47;;;;;;;4.50;4.20;;;;;;;29.14;36.40;99770.38;10547005;28;20040;-71
2023/06/18 12:06:49;;;;;;;4.10;3.80;;;;;;;28.78;35.08;99768.09;10546440;28;20090;-72
2023/06/18 12:12:09;;;;;;;4.20;3.90;;;;;;;29.02;35.78;99769.06;10545169;28;20048;-72
2023/06/18 12:17:20;;;;;;;4.43;4.13;;;;;;;28.43;37.22;99761.22;10526751;28;20052;-72
2023/06/18 12:22:22;;;;;;;4.72;4.32;;;;;;;28.02;37.14;99766.56;10546240;28;20036;-71
2023/06/18 12:27:24;;;;;;;5.03;4.72;;;;;;;28.30;36.48;99766.25;10526703;28;20068;-71
2023/06/18 12:32:26;;;;;;;5.05;4.60;;;;;;;28.58;37.83;99762.19;10527497;28;20052;-71
2023/06/18 12:37:36;;;;;;;5.00;4.60;;;;;;;28.53;35.68;99761.03;10544643;28;20044;-70
2023/06/18 12:42:38;;;;;;;5.10;4.70;;;;;;;28.92;37.24;99756.53;10526531;28;20071;-70
2023/06/18 12:47:47;;;;;;;4.80;4.50;;;;;;;29.00;35.21;99749.44;10543999;28;20073;-71
2023/06/18 12:52:51;;;;;;;4.28;3.97;;;;;;;28.71;36.44;99741.91;10526762;28;20076;-71
2023/06/18 12:57:52;;;;;;;4.07;3.78;;;;;;;28.25;37.37;99737.03;10543556;28;20074;-71
2023/06/18 13:02:54;;;;;;;4.65;4.28;;;;;;;28.17;36.49;99724.38;10543089;28;20382;-71
2023/06/18 13:07:56;;;;;;;3.60;3.30;;;;;;;28.10;36.65;99727.91;10542940;28;20059;-72
2023/06/18 13:12:58;;;;;;;4.40;4.10;;;;;;;27.97;35.19;99723.00;10527270;28;20048;-73
2023/06/18 13:18:00;;;;;;;4.05;3.83;;;;;;;28.38;33.59;99721.19;10527999;28;20517;-72
2023/06/18 13:23:03;;;;;;;4.63;3.90;;;;;;;28.34;36.56;99732.47;10525815;28;20054;-73
2023/06/18 13:28:05;;;;;;;4.20;3.90;;;;;;;28.55;35.33;99726.53;10543458;28;20056;-72
2023/06/18 13:33:06;;;;;;;4.68;4.28;;;;;;;28.20;35.07;99722.31;10525933;28;20112;-72
2023/06/18 13:38:09;;;;;;;4.22;3.92;;;;;;;28.51;35.82;99720.66;10527146;28;20076;-72
2023/06/18 13:43:11;;;;;;;4.13;3.88;;;;;;;28.68;34.74;99729.53;10544703;28;20115;-73
2023/06/18 13:48:15;;;;;;;4.78;4.47;;;;;;;28.25;34.92;99719.97;10525209;28;20098;-72
2023/06/18 13:53:17;;;;;;;4.00;3.70;;;;;;;28.14;34.91;99716.59;10544716;28;20079;-71
2023/06/18 13:58:20;;;;;;;8.63;4.15;;;;;;;28.21;35.11;99710.53;10543598;28;20417;-71
2023/06/18 14:03:22;;;;;;;4.10;3.80;;;;;;;28.34;34.38;99708.97;10526439;28;20119;-71
2023/06/18 14:08:24;;;;;;;4.20;3.90;;;;;;;28.12;35.47;99709.69;10544783;28;20044;-72
2023/06/18 14:13:25;;;;;;;3.72;3.42;;;;;;;28.18;34.42;99711.69;10544559;28;20043;-72
2023/06/18 14:18:29;;;;;;;3.55;3.25;;;;;;;28.33;33.47;99698.31;10546600;28;20048;-73
2023/06/18 14:23:31;;;;;;;4.07;3.78;;;;;;;28.06;35.81;99715.75;10545242;28;20508;-72
2023/06/18 14:28:33;;;;;;;3.92;3.72;;;;;;;28.31;34.82;99703.06;10543467;28;20493;-72
2023/06/18 14:33:35;;;;;;;4.53;4.13;;;;;;;28.09;34.24;99710.00;10544087;28;20062;-73
2023/06/18 14:38:36;;;;;;;4.50;4.10;;;;;;;28.17;35.01;99707.31;10548700;28;20048;-73
2023/06/18 14:43:39;;;;;;;3.75;3.55;;;;;;;28.37;35.79;99697.00;10554898;28;20063;-74
2023/06/18 14:48:41;;;;;;;4.45;4.05;;;;;;;28.18;34.35;99700.88;10554565;28;20048;-73
2023/06/18 14:53:48;;;;;;;4.28;3.97;;;;;;;29.16;32.41;99711.50;10535563;28;20568;-73
2023/06/18 14:58:50;;;;;;;3.75;3.55;;;;;;;28.64;34.33;99707.44;10553670;28;20123;-73
2023/06/18 15:03:52;;;;;;;3.75;3.55;;;;;;;28.64;34.41;99701.16;10553505;28;20044;-73
2023/06/18 15:08:54;;;;;;;4.03;3.72;;;;;;;28.56;33.26;99699.34;10555454;28;20443;-73
2023/06/18 15:13:56;;;;;;;3.70;3.40;;;;;;;28.69;33.34;99706.91;10553155;28;20036;-73
2023/06/18 15:18:57;;;;;;;3.10;2.90;;;;;;;28.68;34.38;99710.63;10535235;28;20039;-73
2023/06/18 15:24:00;;;;;;;3.38;3.17;;;;;;;28.38;34.19;99709.53;10551517;28;20048;-73
2023/06/18 15:29:02;;;;;;;4.10;3.80;;;;;;;28.57;34.73;99701.03;10551267;28;20055;-73
2023/06/18 15:34:04;;;;;;;3.67;3.47;;;;;;;29.21;32.18;99694.72;10552032;28;20062;-72
2023/06/18 15:39:10;;;;;;;3.72;3.50;;;;;;;29.07;33.70;99701.72;10535142;28;20123;-72
2023/06/18 15:44:11;;;;;;;4.00;3.70;;;;;;;28.62;33.67;99701.34;10553454;28;20036;-73
2023/06/18 15:49:16;;;;;;;3.50;3.30;;;;;;;29.26;32.65;99692.31;10549655;28;20048;-73
2023/06/18 15:54:19;;;;;;;6.57;3.93;;;;;;;28.57;34.03;99690.22;10531828;28;20054;-74
2023/06/18 15:59:21;;;;;;;3.13;2.92;;;;;;;29.20;32.89;99695.75;10550992;28;20044;-73
2023/06/18 16:04:24;;;;;;;4.15;3.28;;;;;;;28.57;32.88;99687.50;10549388;28;20051;-73
2023/06/18 16:09:26;;;;;;;3.45;3.15;;;;;;;28.62;33.69;99678.88;10549105;28;20040;-73
2023/06/18 16:14:27;;;;;;;4.63;4.32;;;;;;;29.07;33.11;99683.63;10550120;28;20040;-73
2023/06/18 16:19:29;;;;;;;4.43;4.13;;;;;;;28.87;33.11;99691.31;10551002;28;20058;-73
2023/06/18 16:24:31;;;;;;;3.92;3.63;;;;;;;28.85;31.55;99700.59;10549439;28;20040;-73
2023/06/18 16:29:34;;;;;;;4.05;3.75;;;;;;;28.51;32.48;99690.03;10531837;28;20097;-73
2023/06/18 16:34:37;;;;;;;4.07;3.78;;;;;;;28.30;34.08;99686.00;10531406;28;20040;-73
2023/06/18 16:39:38;;;;;;;5.00;4.15;;;;;;;28.00;34.66;99692.94;10531073;28;20048;-73
2023/06/18 16:44:40;;;;;;;3.83;3.63;;;;;;;27.71;35.27;99688.00;10548778;28;20075;-73
2023/06/18 16:49:42;;;;;;;3.55;3.25;;;;;;;27.17;35.69;99676.75;10531962;28;20493;-75
2023/06/18 16:54:44;;;;;;;4.13;3.83;;;;;;;26.79;36.10;99678.13;10548406;28;20075;-74
2023/06/18 16:59:45;;;;;;;4.68;4.32;;;;;;;26.85;35.73;99678.31;10558568;22;20408;-72
2023/06/18 17:04:47;;;;;;;4.03;3.83;;;;;;;26.48;36.57;99678.63;10540559;28;20050;-72
2023/06/18 17:09:49;;;;;;;5.07;4.75;;;;;;;26.25;36.29;99683.66;10541466;28;20040;-73
2023/06/18 17:14:51;;;;;;;4.75;4.13;;;;;;;26.16;37.11;99679.22;10541180;28;20442;-72
2023/06/18 17:19:53;;;;;;;3.80;3.33;;;;;;;26.30;37.77;99680.50;10522665;28;20103;-72
2023/06/18 17:24:54;;;;;;;3.83;3.53;;;;;;;26.35;36.20;99681.72;10522401;28;20068;-72
2023/06/18 17:29:56;;;;;;;3.50;3.30;;;;;;;26.35;36.60;99678.19;10540615;28;20134;-71
2023/06/18 17:34:58;;;;;;;3.67;3.47;;;;;;;26.36;36.00;99685.25;10540671;28;20549;-72
2023/06/18 17:40:00;;;;;;;3.83;3.58;;;;;;;25.99;37.61;99683.66;10522334;28;20450;-72
2023/06/18 17:45:02;;;;;;;4.00;3.70;;;;;;;25.67;37.75;99676.94;10540300;28;20085;-72
2023/06/18 17:50:05;;;;;;;3.88;3.58;;;;;;;25.50;38.40;99675.13;10539901;28;20089;-72
2023/06/18 17:55:07;;;;;;;3.95;3.65;;;;;;;25.34;38.83;99688.38;10542693;28;20048;-72
2023/06/18 18:00:09;;;;;;;3.80;3.50;;;;;;;25.24;38.88;99684.91;10539826;28;20573;-72
2023/06/18 18:05:11;;;;;;;3.92;3.70;;;;;;;25.13;39.69;99683.28;10540387;28;20071;-72
2023/06/18 18:10:13;;;;;;;4.50;4.20;;;;;;;24.98;40.36;99680.22;10540427;28;20093;-71
2023/06/18 18:15:15;;;;;;;4.70;4.40;;;;;;;24.82;40.22;99691.59;10539698;28;20064;-72
2023/06/18 18:20:16;;;;;;;3.55;3.35;;;;;;;24.66;41.27;99692.25;10540341;28;20131;-72
2023/06/18 18:25:18;;;;;;;4.38;4.07;;;;;;;24.46;42.83;99695.13;10539680;28;20144;-71
2023/06/18 18:30:21;;;;;;;3.83;3.53;;;;;;;24.27;45.06;99704.06;10539800;28;20105;-73
2023/06/18 18:35:25;;;;;;;4.32;4.03;;;;;;;24.15;46.05;99696.16;10538958;28;20036;-74
2023/06/18 18:40:27;;;;;;;4.10;3.80;;;;;;;23.78;47.73;99695.22;10540117;28;20044;-73
2023/06/18 18:45:28;;;;;;;4.00;3.70;;;;;;;23.49;49.31;99693.31;10539056;28;20046;-73
2023/06/18 18:50:30;;;;;;;4.38;3.85;;;;;;;23.31;50.05;99700.34;10539609;28;20549;-72
2023/06/18 18:55:32;;;;;;;4.20;3.90;;;;;;;23.05;51.40;99698.16;10539208;28;20496;-73
2023/06/18 19:00:34;;;;;;;4.35;3.95;;;;;;;22.92;52.13;99700.22;10538697;28;20064;-74
2023/06/18 19:05:36;;;;;;;4.03;3.72;;;;;;;22.79;53.35;99712.97;10538724;28;20460;-74
2023/06/18 19:10:37;;;;;;;4.57;4.28;;;;;;;22.76;54.54;99708.75;10540268;28;20063;-73
2023/06/18 19:15:39;;;;;;;4.72;4.43;;;;;;;22.59;54.86;99710.22;10538947;28;20067;-73
2023/06/18 19:20:41;;;;;;;5.28;4.78;;;;;;;22.38;55.21;99714.75;10539236;28;20113;-73
2023/06/18 19:25:42;;;;;;;4.60;4.20;;;;;;;22.17;56.23;99723.63;10542350;28;20123;-74
2023/06/18 19:30:44;;;;;;;4.78;4.47;;;;;;;21.82;57.65;99729.22;10547108;28;20043;-73
2023/06/18 19:35:46;;;;;;;4.72;4.43;;;;;;;21.63;58.09;99735.28;10545958;28;20115;-73
2023/06/18 19:40:50;;;;;;;5.20;4.80;;;;;;;21.52;59.34;99740.66;10546862;28;20397;-72
2023/06/18 19:45:52;;;;;;;6.72;6.32;;;;;;;21.39;59.50;99746.16;10545914;28;20089;-72
2023/06/18 19:50:54;;;;;;;11.80;10.90;;;;;;;21.53;60.41;99746.88;10545050;28;20508;-72
2023/06/18 19:56:00;;;;;;;12.73;11.68;;;;;;;21.42;60.02;99745.03;10545181;28;20047;-74
2023/06/18 20:01:01;;;;;;;18.38;15.20;;;;;;;21.09;61.57;99745.94;10544945;28;20071;-73
2023/06/18 20:06:04;;;;;;;13.52;12.50;;;;;;;20.64;63.92;99744.09;10544733;28;20075;-73
2023/06/18 20:11:06;;;;;;;10.98;10.07;;;;;;;20.88;62.90;99746.66;10544782;28;20119;-73
2023/06/18 20:16:09;;;;;;;7.63;7.03;;;;;;;20.69;63.10;99743.75;10544455;28;20036;-73
2023/06/18 20:21:11;;;;;;;8.57;6.47;;;;;;;20.27;64.56;99750.53;10543277;28;20127;-74
2023/06/18 20:26:13;;;;;;;6.82;6.32;;;;;;;19.95;67.67;99748.50;10525969;28;20067;-74
2023/06/18 20:31:15;;;;;;;6.43;5.93;;;;;;;19.72;67.76;99752.03;10543629;28;20048;-73
2023/06/18 20:36:19;;;;;;;6.75;6.25;;;;;;;20.05;65.12;99756.66;10543288;28;20063;-74
2023/06/18 20:41:21;;;;;;;6.40;6.00;;;;;;;19.80;66.91;99757.66;10542940;28;20488;-74
2023/06/18 20:46:23;;;;;;;5.93;5.45;;;;;;;19.75;66.10;99758.00;10541373;28;20071;-74
2023/06/18 20:51:25;;;;;;;6.88;6.28;;;;;;;19.50;67.83;99758.91;10541934;28;20044;-73
2023/06/18 20:56:32;;;;;;;5.85;5.45;;;;;;;19.92;64.25;99759.38;10542264;28;20040;-73
2023/06/18 21:01:34;;;;;;;5.60;5.20;;;;;;;19.86;63.81;99760.72;10542348;28;20497;-73
2023/06/18 21:06:36;;;;;;;5.88;5.47;;;;;;;19.52;66.66;99767.66;10543431;28;20039;-74
2023/06/18 21:11:39;;;;;;;7.60;7.03;;;;;;;19.19;68.89;99772.75;10541420;28;20560;-73
2023/06/18 21:16:40;;;;;;;7.03;6.53;;;;;;;19.09;69.35;99759.25;10541501;28;20465;-72
2023/06/18 21:21:42;;;;;;;6.82;6.32;;;;;;;19.14;69.46;99763.28;10540991;28;20404;-72
2023/06/18 21:26:44;;;;;;;5.93;5.60;;;;;;;19.18;70.33;99752.41;10540885;28;20074;-73
2023/06/18 21:31:46;;;;;;;6.65;6.13;;;;;;;19.14;71.60;99759.75;10539839;28;20123;-71
2023/06/18 21:36:49;;;;;;;6.90;6.30;;;;;;;19.32;71.69;99768.25;10540629;28;20493;-71
2023/06/18 21:41:52;;;;;;;6.90;6.50;;;;;;;19.21;72.76;99762.81;10522749;28;20107;-72
2023/06/18 21:46:53;;;;;;;6.88;6.47;;;;;;;19.18;72.90;99763.91;10539620;28;20032;-71
2023/06/18 21:51:55;;;;;;;6.90;6.45;;;;;;;19.10;73.09;99772.44;10522103;28;20497;-71
2023/06/18 21:56:57;;;;;;;7.57;7.07;;;;;;;19.07;72.28;99775.31;10540089;28;20032;-71
2023/06/18 22:01:58;;;;;;;8.18;7.50;;;;;;;19.07;73.81;99777.97;10540082;28;20131;-71
2023/06/18 22:07:00;;;;;;;7.65;7.15;;;;;;;18.84;74.24;99774.28;10539743;28;20032;-71
2023/06/18 22:12:02;;;;;;;7.75;7.25;;;;;;;18.76;74.63;99783.78;10541030;28;20064;-71
2023/06/18 22:17:04;;;;;;;7.13;6.72;;;;;;;18.65;74.60;99777.34;10540318;28;20090;-71
2023/06/18 22:22:06;;;;;;;8.38;7.78;;;;;;;18.89;74.49;99779.28;10539571;28;20093;-71
2023/06/18 22:27:08;;;;;;;8.27;7.68;;;;;;;18.81;74.88;99777.16;10539506;28;20400;-71
2023/06/18 22:32:10;;;;;;;7.80;7.30;;;;;;;18.54;76.50;99784.38;10540529;28;20130;-71
2023/06/18 22:37:12;;;;;;;9.27;8.32;;;;;;;18.57;77.64;99773.53;10521055;28;20126;-71
2023/06/18 22:42:14;;;;;;;8.00;7.50;;;;;;;18.35;78.58;99769.66;10539856;28;20412;-71
2023/06/18 22:47:15;;;;;;;8.55;7.95;;;;;;;18.71;78.03;99765.44;10539098;28;20115;-71
2023/06/18 22:52:17;;;;;;;8.60;7.95;;;;;;;18.45;77.85;99774.34;10539982;28;20047;-71
2023/06/18 23:02:40;;;;;;;8.13;7.53;;;;;;;17.96;82.46;99772.34;10383219;28;20046;-73
2023/06/18 23:07:42;;;;;;;8.18;7.68;;;;;;;18.20;80.63;99767.22;10409878;28;20045;-73
2023/06/18 23:12:44;;;;;;;8.25;7.60;;;;;;;18.13;81.28;99762.28;10424746;28;20072;-73
2023/06/18 23:17:45;;;;;;;8.52;7.93;;;;;;;18.05;81.59;99759.28;10425460;28;20545;-73
2023/06/18 23:22:48;;;;;;;8.85;8.25;;;;;;;18.01;82.54;99764.91;10425291;28;20041;-73
2023/06/18 23:27:50;;;;;;;8.35;7.63;;;;;;;17.85;82.22;99765.09;10426957;28;20115;-74
2023/06/18 23:32:51;;;;;;;7.97;7.45;;;;;;;17.85;81.12;99759.78;10426598;28;20541;-74